Time;durP1;ratioP1;P1;durP2;ratioP2;P2;SDS_P1;SDS_P2;PMS_P1;PMS_P2;Temp;Humidity;BMP_temperature;BMP_pressure;BME280_temperature;BME280_humidity;BME280_pressure;Samples;Min_cycle;Max_cycle;Signal;HPM_P1;HPM_P2
2022/01/26 00:06:31;;;;;;;0.40;0.40;;;0.30;90.50;;;;;;5055234;28;20264;-70
2022/01/26 00:08:56;;;;;;;0.40;0.40;;;0.20;90.20;;;;;;5055428;28;20655;-70
2022/01/26 00:11:23;;;;;;;0.40;0.40;;;0.30;90.30;;;;;;5055335;28;20452;-70
2022/01/26 00:13:50;;;;;;;0.30;0.30;;;0.30;90.20;;;;;;5055324;28;20397;-70
2022/01/26 00:16:26;;;;;;;0.40;0.40;;;0.30;90.20;;;;;;5054770;28;20167;-70
2022/01/26 00:18:56;;;;;;;0.40;0.40;;;0.20;90.20;;;;;;5055412;28;20197;-70
2022/01/26 00:21:36;;;;;;;0.30;0.30;;;0.20;90.10;;;;;;5055057;28;20170;-70
2022/01/26 00:24:12;;;;;;;0.40;0.40;;;0.30;90.20;;;;;;5053895;28;20174;-70
2022/01/26 00:29:11;;;;;;;0.40;0.40;;;0.30;90.30;;;;;;5055054;28;20292;-70
2022/01/26 00:42:58;;;;;;;0.40;0.40;;;0.10;90.80;;;;;;5054770;28;20283;-70
2022/01/26 00:45:32;;;;;;;0.50;0.50;;;0.10;90.90;;;;;;5054534;28;20182;-70
2022/01/26 00:47:57;;;;;;;0.40;0.40;;;0.10;90.90;;;;;;5054814;28;20202;-70
2022/01/26 00:50:23;;;;;;;0.50;0.50;;;0.20;90.80;;;;;;5054427;28;20233;-70
2022/01/26 00:52:53;;;;;;;0.40;0.40;;;0.20;90.70;;;;;;5054446;28;20536;-70
2022/01/26 00:55:20;;;;;;;0.40;0.40;;;0.20;90.40;;;;;;5054486;28;20162;-70
2022/01/26 00:57:46;;;;;;;0.40;0.40;;;0.20;90.20;;;;;;5054358;28;20253;-70
2022/01/26 01:00:17;;;;;;;0.40;0.40;;;0.10;90.40;;;;;;5054714;28;20214;-70
2022/01/26 01:02:43;;;;;;;0.40;0.40;;;0.10;90.80;;;;;;5054524;28;20171;-70
2022/01/26 01:05:19;;;;;;;0.50;0.50;;;0.10;90.80;;;;;;5054660;28;20170;-70
2022/01/26 01:07:47;;;;;;;0.40;0.40;;;0.00;90.80;;;;;;5054167;28;20818;-70
2022/01/26 01:10:16;;;;;;;0.40;0.40;;;0.10;91.20;;;;;;5053994;28;20589;-70
2022/01/26 01:12:44;;;;;;;0.30;0.30;;;0.10;91.30;;;;;;5054423;28;20507;-70
2022/01/26 01:15:12;;;;;;;0.30;0.30;;;0.10;91.30;;;;;;5054263;28;20546;-70
2022/01/26 01:17:47;;;;;;;0.30;0.30;;;0.20;91.30;;;;;;5054051;28;20166;-70
2022/01/26 01:28:32;;;;;;;0.30;0.30;;;0.20;91.20;;;;;;5053454;28;20185;-70
2022/01/26 01:31:08;;;;;;;0.30;0.30;;;0.10;91.20;;;;;;5053820;28;20189;-70
2022/01/26 01:33:38;;;;;;;0.30;0.30;;;0.10;91.30;;;;;;5054062;28;20162;-70
2022/01/26 01:36:05;;;;;;;0.30;0.30;;;0.10;91.40;;;;;;5053688;28;20174;-70
2022/01/26 01:38:33;;;;;;;0.40;0.40;;;0.10;91.60;;;;;;5053839;28;20513;-70
2022/01/26 01:40:59;;;;;;;0.30;0.30;;;0.10;91.70;;;;;;5053688;28;20534;-70
2022/01/26 01:43:25;;;;;;;0.50;0.50;;;0.00;91.60;;;;;;5053683;28;20178;-70
2022/01/26 01:45:52;;;;;;;0.30;0.30;;;0.00;91.90;;;;;;5053463;28;20170;-70
2022/01/26 01:48:22;;;;;;;0.40;0.40;;;0.00;92.00;;;;;;5053660;28;20173;-70
2022/01/26 01:50:51;;;;;;;0.32;0.32;;;0.10;92.10;;;;;;5052198;28;20686;-70
2022/01/26 01:53:18;;;;;;;0.43;0.43;;;0.10;92.20;;;;;;5053677;28;20208;-70
2022/01/26 01:55:50;;;;;;;0.40;0.40;;;0.10;92.20;;;;;;5053320;28;20575;-70
2022/01/26 01:58:17;;;;;;;0.30;0.30;;;0.10;92.10;;;;;;5053579;28;20167;-70
2022/01/26 02:00:43;;;;;;;0.40;0.40;;;0.10;92.00;;;;;;5053516;28;20268;-70
2022/01/26 02:03:09;;;;;;;0.40;0.40;;;0.10;92.00;;;;;;5053569;28;20597;-70
2022/01/26 02:05:35;;;;;;;0.30;0.30;;;0.10;92.00;;;;;;5053361;28;20201;-70
2022/01/26 02:08:01;;;;;;;0.40;0.40;;;0.10;92.10;;;;;;5053453;28;20174;-70
2022/01/26 02:10:29;;;;;;;0.40;0.40;;;0.10;92.20;;;;;;5053381;28;20895;-70
2022/01/26 02:12:57;;;;;;;0.30;0.30;;;0.20;92.30;;;;;;5053309;28;20393;-70
2022/01/26 02:15:30;;;;;;;0.30;0.30;;;0.20;92.20;;;;;;5053224;28;20197;-70
2022/01/26 02:55:45;;;;;;;0.30;0.30;;;-0.10;93.00;;;;;;5056897;28;20636;-70
2022/01/26 03:03:33;;;;;;;0.40;0.40;;;-0.20;92.50;;;;;;5056854;28;20649;-70
2022/01/26 03:06:04;;;;;;;0.30;0.30;;;-0.20;92.50;;;;;;5056544;28;20206;-70
2022/01/26 03:08:37;;;;;;;0.40;0.40;;;-0.20;92.40;;;;;;5055276;28;20197;-70
2022/01/26 03:11:12;;;;;;;0.40;0.40;;;-0.20;92.50;;;;;;5056713;28;20198;-70
2022/01/26 03:13:53;;;;;;;1.88;1.88;;;-0.30;92.50;;;;;;5056616;28;20165;-70
2022/01/26 03:16:28;;;;;;;0.40;0.40;;;-0.30;92.60;;;;;;5056284;28;20176;-70
2022/01/26 03:19:04;;;;;;;0.40;0.40;;;-0.20;92.80;;;;;;5056285;28;20189;-70
2022/01/26 03:21:39;;;;;;;0.40;0.40;;;-0.20;92.60;;;;;;5056679;28;20184;-70
2022/01/26 03:29:57;;;;;;;0.40;0.40;;;-0.30;92.60;;;;;;5073900;28;20540;-70
2022/01/26 03:35:13;;;;;;;0.40;0.40;;;-0.30;92.70;;;;;;5056196;28;20189;-70
2022/01/26 03:37:39;;;;;;;0.45;0.45;;;-0.30;92.70;;;;;;5055847;28;20566;-70
2022/01/26 03:40:13;;;;;;;0.40;0.40;;;-0.30;92.80;;;;;;5055854;28;20193;-71
2022/01/26 03:42:38;;;;;;;0.50;0.50;;;-0.30;92.80;;;;;;5056034;28;20182;-70
2022/01/26 03:45:04;;;;;;;0.40;0.40;;;-0.20;92.90;;;;;;5056002;28;20628;-70
2022/01/26 03:47:30;;;;;;;0.40;0.40;;;-0.20;92.90;;;;;;5055850;28;20548;-70
2022/01/26 03:49:56;;;;;;;0.40;0.40;;;-0.20;93.00;;;;;;5055593;28;20209;-70
2022/01/26 03:52:21;;;;;;;0.40;0.40;;;-0.20;93.20;;;;;;5055020;28;20174;-70
2022/01/26 03:54:47;;;;;;;0.40;0.40;;;-0.10;93.30;;;;;;5055748;28;20635;-70
2022/01/26 03:57:13;;;;;;;0.40;0.40;;;-0.10;93.30;;;;;;5055545;28;20174;-70
2022/01/26 03:59:38;;;;;;;0.40;0.40;;;-0.10;93.30;;;;;;5055356;28;20719;-70
2022/01/26 04:02:04;;;;;;;0.30;0.30;;;-0.10;93.50;;;;;;5055501;28;20545;-70
2022/01/26 04:04:36;;;;;;;0.40;0.40;;;-0.10;93.50;;;;;;5055921;28;20223;-70
2022/01/26 04:07:02;;;;;;;0.40;0.40;;;-0.10;93.20;;;;;;5054065;28;20295;-70
2022/01/26 04:09:28;;;;;;;0.50;0.50;;;-0.10;93.10;;;;;;5055282;28;20198;-70
2022/01/26 04:11:53;;;;;;;0.40;0.40;;;-0.10;92.80;;;;;;5055342;28;20206;-70
2022/01/26 04:14:23;;;;;;;0.40;0.40;;;-0.20;92.60;;;;;;5055256;28;20177;-70
2022/01/26 04:16:49;;;;;;;0.50;0.50;;;-0.20;92.80;;;;;;5055107;28;20437;-70
2022/01/26 04:19:17;;;;;;;0.50;0.50;;;-0.20;92.90;;;;;;5055236;28;20198;-71
2022/01/26 04:24:51;;;;;;;0.40;0.40;;;-0.20;93.30;;;;;;5073159;28;20186;-70
2022/01/26 04:27:23;;;;;;;0.45;0.45;;;-0.20;93.20;;;;;;5057721;28;20182;-70
2022/01/26 04:29:50;;;;;;;1.02;1.02;;;-0.30;93.10;;;;;;5054888;28;20271;-70
2022/01/26 04:32:16;;;;;;;0.47;0.47;;;-0.30;93.10;;;;;;5055140;28;20181;-70
2022/01/26 04:34:43;;;;;;;0.47;0.47;;;-0.40;93.10;;;;;;5055195;28;20322;-70
2022/01/26 04:37:25;;;;;;;0.50;0.50;;;-0.40;93.10;;;;;;5053345;28;20181;-70
2022/01/26 04:39:57;;;;;;;0.40;0.40;;;-0.40;93.10;;;;;;5054774;28;20193;-70
2022/01/26 04:45:10;;;;;;;0.50;0.50;;;-0.30;93.40;;;;;;5055144;28;20177;-70
2022/01/26 04:47:37;;;;;;;0.50;0.50;;;-0.30;93.50;;;;;;5054473;28;20220;-70
2022/01/26 04:50:06;;;;;;;0.40;0.40;;;-0.30;93.60;;;;;;5054670;28;20273;-70
2022/01/26 04:52:33;;;;;;;0.40;0.40;;;-0.20;93.60;;;;;;5054526;28;20627;-70
2022/01/26 04:54:59;;;;;;;0.40;0.40;;;-0.20;93.60;;;;;;5054768;28;20178;-70
2022/01/26 04:57:25;;;;;;;0.50;0.50;;;-0.20;93.60;;;;;;5054416;28;20175;-70
2022/01/26 04:59:50;;;;;;;0.50;0.50;;;-0.20;93.50;;;;;;5054202;28;20208;-70
2022/01/26 05:02:16;;;;;;;0.60;0.60;;;-0.30;93.30;;;;;;5054514;28;20695;-70
2022/01/26 05:04:42;;;;;;;0.40;0.40;;;-0.30;93.40;;;;;;5053632;28;20173;-70
2022/01/26 05:07:08;;;;;;;0.40;0.40;;;-0.30;93.40;;;;;;5054150;28;20671;-70
2022/01/26 05:09:33;;;;;;;0.40;0.40;;;-0.40;93.20;;;;;;5054287;28;20421;-70
2022/01/26 05:12:01;;;;;;;0.40;0.40;;;-0.40;93.30;;;;;;5054205;28;20612;-70
2022/01/26 05:14:27;;;;;;;0.40;0.40;;;-0.40;93.50;;;;;;5054411;28;20205;-70
2022/01/26 05:16:53;;;;;;;0.30;0.30;;;-0.40;93.60;;;;;;5053927;28;20198;-70
2022/01/26 05:19:18;;;;;;;0.37;0.37;;;-0.40;93.70;;;;;;5054210;28;20235;-70
2022/01/26 05:21:44;;;;;;;0.40;0.40;;;-0.40;93.70;;;;;;5054223;28;20171;-70
2022/01/26 05:24:10;;;;;;;0.30;0.30;;;-0.40;93.80;;;;;;5054057;28;20176;-70
2022/01/26 05:26:40;;;;;;;0.40;0.40;;;-0.40;93.90;;;;;;5053881;28;20177;-70
2022/01/26 05:29:06;;;;;;;0.50;0.50;;;-0.40;93.80;;;;;;5053668;28;20198;-70
2022/01/26 05:31:31;;;;;;;0.40;0.40;;;-0.40;93.70;;;;;;5052666;28;20214;-68
2022/01/26 05:33:58;;;;;;;0.50;0.50;;;-0.40;93.60;;;;;;5053774;28;20217;-68
2022/01/26 05:36:24;;;;;;;0.40;0.40;;;-0.40;93.60;;;;;;5052222;28;20590;-68
2022/01/26 05:38:49;;;;;;;0.50;0.50;;;-0.40;93.80;;;;;;5053983;28;20229;-68
2022/01/26 05:41:15;;;;;;;0.40;0.40;;;-0.40;93.90;;;;;;5053585;28;20247;-68
2022/01/26 05:43:41;;;;;;;0.30;0.30;;;-0.50;93.80;;;;;;5053842;28;20170;-70
2022/01/26 05:46:25;;;;;;;0.30;0.30;;;-0.40;94.30;;;;;;5053791;28;20166;-68
2022/01/26 05:48:52;;;;;;;0.40;0.40;;;-0.40;94.10;;;;;;5053717;28;20194;-68
2022/01/26 05:51:17;;;;;;;0.30;0.30;;;-0.30;94.00;;;;;;5052483;28;20686;-69
2022/01/26 05:53:43;;;;;;;0.40;0.40;;;-0.30;93.80;;;;;;5053885;28;20206;-70
2022/01/26 05:56:09;;;;;;;0.40;0.40;;;-0.30;93.50;;;;;;5053498;28;20533;-71
2022/01/26 05:58:35;;;;;;;0.50;0.50;;;-0.30;93.60;;;;;;5053778;28;20244;-68
2022/01/26 06:01:01;;;;;;;0.47;0.47;;;-0.30;93.50;;;;;;5053886;28;20878;-68
2022/01/26 06:03:30;;;;;;;0.40;0.40;;;-0.40;93.40;;;;;;5052140;28;20186;-70
2022/01/26 06:05:57;;;;;;;0.40;0.40;;;-0.40;93.40;;;;;;5053510;28;20572;-70
2022/01/26 06:08:24;;;;;;;0.30;0.30;;;-0.50;93.50;;;;;;5052544;28;20182;-70
2022/01/26 06:10:50;;;;;;;0.50;0.50;;;-0.50;93.70;;;;;;5053360;28;20186;-69
2022/01/26 06:13:16;;;;;;;0.43;0.43;;;-0.50;93.80;;;;;;5053911;28;20166;-70
2022/01/26 06:15:43;;;;;;;0.47;0.47;;;-0.50;93.80;;;;;;5056833;28;20158;-69
2022/01/26 06:18:10;;;;;;;0.40;0.40;;;-0.50;94.00;;;;;;5059960;28;20166;-70
2022/01/26 06:20:37;;;;;;;0.40;0.40;;;-0.40;94.00;;;;;;5060394;28;20264;-70
2022/01/26 06:23:04;;;;;;;0.50;0.50;;;-0.40;94.00;;;;;;5060133;28;20185;-70
2022/01/26 06:25:29;;;;;;;0.30;0.30;;;-0.40;94.20;;;;;;5060153;28;20174;-71
2022/01/26 06:27:58;;;;;;;0.60;0.60;;;-0.30;94.20;;;;;;5060528;28;20178;-71
2022/01/26 06:30:24;;;;;;;0.40;0.40;;;-0.30;94.10;;;;;;5058373;28;20467;-72
2022/01/26 06:32:50;;;;;;;0.50;0.50;;;-0.30;93.90;;;;;;5059951;28;20621;-71
2022/01/26 06:35:17;;;;;;;0.43;0.43;;;-0.20;93.70;;;;;;5059933;28;20177;-71
2022/01/26 06:37:46;;;;;;;0.40;0.40;;;-0.20;93.60;;;;;;5059674;28;20181;-71
2022/01/26 06:40:12;;;;;;;0.30;0.30;;;-0.20;93.40;;;;;;5060292;28;20186;-71
2022/01/26 06:42:51;;;;;;;0.40;0.40;;;-0.30;93.20;;;;;;5060300;28;20174;-71
2022/01/26 06:45:20;;;;;;;0.40;0.40;;;-0.40;93.20;;;;;;5059899;28;20211;-71
2022/01/26 06:50:11;;;;;;;0.43;0.43;;;-0.60;93.60;;;;;;5060374;28;20201;-71
2022/01/26 06:52:37;;;;;;;0.40;0.40;;;-0.60;94.00;;;;;;5059928;28;20194;-71
2022/01/26 06:55:04;;;;;;;0.40;0.40;;;-0.60;93.80;;;;;;5059539;28;20244;-71
2022/01/26 06:57:30;;;;;;;0.40;0.40;;;-0.60;93.70;;;;;;5058388;28;20241;-71
2022/01/26 06:59:55;;;;;;;0.40;0.40;;;-0.50;93.70;;;;;;5058211;28;20227;-72
2022/01/26 07:02:21;;;;;;;0.50;0.50;;;-0.50;93.50;;;;;;5059794;28;20196;-70
2022/01/26 07:04:46;;;;;;;0.50;0.50;;;-0.50;93.50;;;;;;5059845;28;20539;-69
2022/01/26 07:07:12;;;;;;;0.30;0.30;;;-0.60;93.70;;;;;;5059541;28;20174;-70
2022/01/26 07:09:38;;;;;;;0.30;0.30;;;-0.50;94.10;;;;;;5058967;28;20193;-69
2022/01/26 07:12:04;;;;;;;0.40;0.40;;;-0.50;94.20;;;;;;5059283;28;20192;-70
2022/01/26 07:21:18;;;;;;;0.40;0.40;;;-0.30;93.40;;;;;;5059305;28;20201;-70
2022/01/26 07:22:43;;;;;;;0.30;0.30;;;-0.20;93.40;;;;;;5062077;28;20224;-70
2022/01/26 07:25:09;;;;;;;0.30;0.30;;;-0.20;93.50;;;;;;5059486;28;20170;-70
2022/01/26 07:27:34;;;;;;;0.30;0.30;;;-0.10;93.30;;;;;;5055336;28;20186;-70
2022/01/26 07:30:00;;;;;;;0.30;0.30;;;-0.10;93.10;;;;;;5055966;28;20721;-70
2022/01/26 07:32:29;;;;;;;0.40;0.40;;;-0.10;93.10;;;;;;5056318;28;20170;-70
2022/01/26 07:34:54;;;;;;;0.60;0.60;;;-0.10;93.20;;;;;;5056482;28;20166;-69
2022/01/26 07:37:21;;;;;;;0.40;0.40;;;0.00;93.10;;;;;;5055861;28;20257;-69
2022/01/26 07:40:02;;;;;;;0.40;0.40;;;0.00;93.00;;;;;;5056018;28;20186;-71
2022/01/26 07:42:28;;;;;;;0.35;0.35;;;0.10;92.80;;;;;;5056141;28;20682;-70
2022/01/26 07:44:53;;;;;;;0.40;0.40;;;0.10;92.70;;;;;;5056036;28;20170;-69
2022/01/26 07:47:19;;;;;;;0.47;0.47;;;0.20;92.50;;;;;;5055597;28;20588;-70
2022/01/26 07:49:45;;;;;;;0.50;0.50;;;0.20;92.30;;;;;;5055717;28;20197;-69
2022/01/26 07:52:13;;;;;;;0.40;0.40;;;0.20;92.30;;;;;;5055870;28;20715;-70
2022/01/26 07:54:39;;;;;;;0.40;0.40;;;0.20;92.20;;;;;;5055799;28;20193;-70
2022/01/26 07:57:07;;;;;;;0.40;0.40;;;0.30;92.10;;;;;;5055677;28;20249;-70
2022/01/26 07:59:32;;;;;;;0.40;0.40;;;0.30;91.90;;;;;;5055468;28;20208;-70
2022/01/26 08:01:58;;;;;;;0.30;0.30;;;0.30;92.10;;;;;;5055526;28;20178;-70
2022/01/26 08:04:24;;;;;;;0.40;0.40;;;0.40;92.20;;;;;;5055490;28;20170;-70
2022/01/26 08:06:50;;;;;;;0.30;0.30;;;0.80;93.10;;;;;;5055340;28;20537;-70
2022/01/26 08:09:16;;;;;;;0.30;0.30;;;2.00;91.50;;;;;;5055279;28;20281;-70
2022/01/26 08:11:42;;;;;;;0.30;0.30;;;3.70;86.30;;;;;;5055391;28;20284;-70
2022/01/26 08:14:08;;;;;;;0.40;0.40;;;4.70;80.10;;;;;;5055489;28;20314;-70
2022/01/26 08:16:34;;;;;;;0.37;0.37;;;5.80;75.50;;;;;;5055136;28;20707;-70
2022/01/26 08:19:00;;;;;;;0.40;0.40;;;6.70;69.90;;;;;;5055130;28;20948;-70
2022/01/26 08:21:26;;;;;;;0.40;0.40;;;7.00;66.40;;;;;;5055249;28;20186;-70
2022/01/26 08:23:51;;;;;;;0.40;0.40;;;7.30;63.80;;;;;;5055364;28;20174;-71
2022/01/26 08:26:19;;;;;;;0.40;0.40;;;7.60;61.30;;;;;;5055064;28;20636;-71
2022/01/26 08:28:50;;;;;;;0.40;0.40;;;8.40;58.80;;;;;;5055202;28;20556;-71
2022/01/26 08:31:16;;;;;;;0.52;0.52;;;8.90;56.20;;;;;;5055198;28;20609;-71
2022/01/26 08:33:41;;;;;;;0.40;0.40;;;9.30;54.80;;;;;;5055209;28;20175;-71
2022/01/26 08:36:07;;;;;;;0.40;0.40;;;10.20;52.20;;;;;;5053654;28;20180;-71
2022/01/26 08:38:33;;;;;;;0.40;0.40;;;10.80;50.40;;;;;;5054805;28;20185;-71
2022/01/26 08:40:59;;;;;;;0.40;0.40;;;11.40;48.70;;;;;;5053574;28;20210;-71
2022/01/26 08:43:24;;;;;;;0.30;0.30;;;11.30;48.00;;;;;;5054905;28;20170;-71
2022/01/26 08:45:50;;;;;;;0.70;0.70;;;11.40;47.30;;;;;;5054833;28;20178;-71
2022/01/26 08:48:15;;;;;;;0.40;0.40;;;11.40;46.80;;;;;;5054644;28;20173;-71
2022/01/26 08:50:41;;;;;;;0.30;0.30;;;11.40;46.80;;;;;;5054611;28;20269;-71
2022/01/26 08:53:07;;;;;;;0.40;0.40;;;11.40;46.30;;;;;;5054824;28;20165;-71
2022/01/26 08:55:35;;;;;;;0.30;0.30;;;10.90;46.50;;;;;;5054535;28;20244;-70
2022/01/26 08:58:01;;;;;;;0.50;0.50;;;10.50;46.90;;;;;;5054533;28;20175;-71
2022/01/26 09:00:26;;;;;;;0.30;0.30;;;9.90;48.90;;;;;;5054285;28;20554;-71
2022/01/26 09:02:53;;;;;;;0.30;0.30;;;10.10;48.60;;;;;;5053381;28;20412;-71
2022/01/26 09:05:19;;;;;;;0.30;0.30;;;10.70;48.00;;;;;;5054590;28;20190;-71
2022/01/26 09:07:49;;;;;;;0.40;0.40;;;11.00;46.70;;;;;;5054277;28;20262;-71
2022/01/26 09:10:15;;;;;;;0.30;0.30;;;11.00;47.20;;;;;;5054093;28;20771;-71
2022/01/26 09:12:43;;;;;;;1.33;1.23;;;11.70;46.00;;;;;;5054385;28;20178;-71
2022/01/26 09:15:10;;;;;;;0.40;0.40;;;12.30;45.10;;;;;;5054452;28;20243;-71
2022/01/26 09:17:36;;;;;;;0.40;0.40;;;12.50;44.00;;;;;;5054020;28;20194;-71
2022/01/26 09:20:04;;;;;;;0.30;0.30;;;13.00;44.30;;;;;;5054009;28;20211;-71
2022/01/26 09:22:30;;;;;;;0.30;0.30;;;13.80;42.60;;;;;;5054250;28;20401;-71
2022/01/26 09:24:56;;;;;;;0.30;0.30;;;14.90;40.90;;;;;;5054040;28;20757;-71
2022/01/26 09:27:22;;;;;;;0.43;0.43;;;15.60;39.00;;;;;;5053723;28;20178;-71
2022/01/26 09:29:47;;;;;;;0.40;0.40;;;16.30;38.20;;;;;;5053918;28;20194;-71
2022/01/26 09:32:14;;;;;;;0.30;0.30;;;16.50;38.10;;;;;;5053859;28;20198;-71
2022/01/26 09:34:41;;;;;;;0.50;0.50;;;17.10;36.10;;;;;;5053889;28;20174;-71
2022/01/26 09:37:12;;;;;;;0.30;0.30;;;18.00;35.20;;;;;;5053738;28;20492;-71
2022/01/26 09:39:39;;;;;;;0.30;0.30;;;18.60;33.90;;;;;;5053725;28;20427;-71
2022/01/26 09:42:05;;;;;;;0.40;0.40;;;19.00;32.50;;;;;;5053642;28;20506;-71
2022/01/26 09:44:31;;;;;;;0.37;0.37;;;18.80;32.20;;;;;;5053713;28;20429;-71
2022/01/26 09:46:58;;;;;;;0.30;0.30;;;18.90;32.40;;;;;;5053415;28;20413;-72
2022/01/26 09:49:31;;;;;;;0.77;0.77;;;19.30;31.50;;;;;;5050234;28;20402;-72
2022/01/26 09:52:13;;;;;;;0.90;0.90;;;19.10;31.50;;;;;;5051517;28;20498;-70
2022/01/26 09:54:39;;;;;;;0.50;0.50;;;19.70;30.70;;;;;;5053765;28;20464;-70
2022/01/26 09:57:04;;;;;;;0.40;0.40;;;19.60;30.20;;;;;;5053352;28;20412;-72
2022/01/26 09:59:31;;;;;;;0.30;0.30;;;19.90;30.20;;;;;;5052358;28;20451;-70
2022/01/26 10:01:58;;;;;;;1.00;0.97;;;19.90;30.30;;;;;;5053119;28;20577;-74
2022/01/26 10:04:37;;;;;;;0.30;0.30;;;19.70;30.00;;;;;;5052280;28;20416;-78
2022/01/26 10:07:27;;;;;;;0.30;0.30;;;19.40;30.00;;;;;;5053436;28;20436;-79
2022/01/26 10:10:17;;;;;;;1.13;1.13;;;19.10;30.00;;;;;;5053699;28;20489;-74
2022/01/26 10:15:48;;;;;;;0.30;0.30;;;18.50;30.50;;;;;;5053558;28;20873;-71
2022/01/26 10:18:20;;;;;;;0.30;0.30;;;17.90;31.00;;;;;;5053589;28;20407;-73
2022/01/26 10:20:51;;;;;;;0.30;0.30;;;18.50;30.00;;;;;;5053593;28;20400;-76
2022/01/26 10:23:22;;;;;;;0.30;0.30;;;19.30;30.80;;;;;;5053845;28;20413;-71
2022/01/26 10:26:09;;;;;;;0.30;0.30;;;19.90;29.60;;;;;;5051881;28;20442;-71
2022/01/26 10:28:47;;;;;;;0.30;0.30;;;19.90;28.80;;;;;;5053316;28;20761;-71
2022/01/26 10:31:23;;;;;;;0.30;0.30;;;19.70;30.10;;;;;;5053085;28;20455;-71
2022/01/26 10:34:07;;;;;;;0.30;0.30;;;19.80;30.20;;;;;;5052076;28;20458;-71
2022/01/26 10:36:36;;;;;;;0.40;0.40;;;19.50;28.50;;;;;;5053331;28;20488;-71
2022/01/26 10:39:13;;;;;;;0.30;0.30;;;18.70;28.30;;;;;;5053027;28;20428;-71
2022/01/26 10:41:40;;;;;;;0.30;0.30;;;18.40;28.90;;;;;;5053274;28;20397;-71
2022/01/26 10:44:07;;;;;;;0.40;0.40;;;18.40;29.60;;;;;;5053223;28;20401;-71
2022/01/26 10:46:39;;;;;;;0.37;0.37;;;18.80;28.10;;;;;;5052890;28;20404;-71
2022/01/26 10:49:18;;;;;;;0.63;0.60;;;18.60;28.20;;;;;;5053171;28;20432;-71
2022/01/26 10:57:02;;;;;;;0.30;0.30;;;15.60;29.80;;;;;;5052930;28;20419;-71
2022/01/26 10:59:27;;;;;;;0.30;0.30;;;15.70;30.00;;;;;;5052435;28;20446;-71
2022/01/26 11:01:59;;;;;;;0.30;0.30;;;16.20;29.90;;;;;;5053360;28;20530;-71
2022/01/26 11:04:25;;;;;;;0.30;0.30;;;16.80;30.10;;;;;;5056481;28;20541;-71
2022/01/26 11:06:53;;;;;;;0.80;0.80;;;17.10;30.10;;;;;;5056533;28;20419;-71
2022/01/26 11:09:23;;;;;;;0.50;0.50;;;17.00;29.80;;;;;;5056542;28;20523;-71
2022/01/26 11:12:09;;;;;;;0.30;0.30;;;16.30;30.40;;;;;;5056473;28;20916;-71
2022/01/26 11:14:44;;;;;;;0.30;0.30;;;15.90;32.00;;;;;;5056601;28;20403;-71
2022/01/26 11:17:22;;;;;;;0.30;0.30;;;15.50;32.80;;;;;;5056504;28;20397;-71
2022/01/26 11:19:48;;;;;;;0.30;0.30;;;14.90;30.00;;;;;;5056295;28;20934;-71
2022/01/26 11:22:14;;;;;;;0.30;0.30;;;14.10;31.00;;;;;;5056275;28;20416;-71
2022/01/26 11:24:48;;;;;;;0.40;0.40;;;13.60;31.60;;;;;;5056231;28;20454;-71
2022/01/26 11:27:16;;;;;;;0.30;0.30;;;13.10;32.70;;;;;;5056156;28;20791;-71
2022/01/26 11:29:46;;;;;;;0.63;0.63;;;12.80;33.80;;;;;;5056150;28;20856;-71
2022/01/26 11:32:23;;;;;;;0.30;0.30;;;12.30;34.00;;;;;;5056037;28;20493;-71
2022/01/26 11:34:51;;;;;;;0.30;0.30;;;12.20;37.50;;;;;;5056341;28;20392;-71
2022/01/26 11:37:48;;;;;;;0.40;0.40;;;12.00;35.40;;;;;;5055884;28;20178;-71
2022/01/26 11:46:09;;;;;;;0.30;0.30;;;11.80;33.80;;;;;;5056144;28;20307;-71
2022/01/26 11:48:36;;;;;;;0.30;0.30;;;11.40;35.60;;;;;;5056009;28;20190;-71
2022/01/26 11:51:03;;;;;;;0.80;0.80;;;11.40;35.30;;;;;;5055670;28;20190;-71
2022/01/26 11:53:30;;;;;;;0.30;0.30;;;11.30;35.30;;;;;;5055749;28;20612;-71
2022/01/26 11:56:07;;;;;;;0.30;0.30;;;11.30;35.90;;;;;;5055437;28;20170;-71
2022/01/26 11:58:39;;;;;;;0.30;0.30;;;11.20;38.20;;;;;;5055666;28;20185;-71
2022/01/26 12:04:09;;;;;;;0.30;0.30;;;10.80;36.40;;;;;;5055642;28;20228;-71
2022/01/26 12:06:40;;;;;;;0.40;0.40;;;10.50;40.40;;;;;;5055465;28;20173;-71
2022/01/26 12:09:07;;;;;;;0.30;0.30;;;10.40;36.30;;;;;;5055389;28;20190;-71
2022/01/26 12:11:33;;;;;;;0.30;0.30;;;10.50;38.40;;;;;;5055388;28;20189;-71
2022/01/26 12:14:03;;;;;;;0.30;0.30;;;10.40;39.60;;;;;;5055005;28;20177;-71
2022/01/26 12:16:39;;;;;;;0.30;0.30;;;10.00;40.60;;;;;;5054368;28;20190;-71
2022/01/26 12:43:47;;;;;;;0.40;0.40;;;8.00;41.00;;;;;;5055214;28;20180;-71
2022/01/26 12:46:14;;;;;;;0.32;0.32;;;8.00;42.20;;;;;;5054752;28;20222;-71
2022/01/26 12:48:42;;;;;;;0.30;0.30;;;7.80;44.00;;;;;;5054779;28;20197;-71
2022/01/26 12:51:10;;;;;;;1.58;1.58;;;7.60;47.10;;;;;;5054693;28;20218;-71
2022/01/26 12:53:37;;;;;;;0.40;0.40;;;7.50;48.10;;;;;;5054772;28;20170;-71
2022/01/26 12:56:05;;;;;;;0.40;0.40;;;7.20;48.10;;;;;;5054377;28;20167;-71
2022/01/26 12:58:40;;;;;;;0.40;0.40;;;6.90;48.20;;;;;;5054522;28;20286;-71
2022/01/26 13:01:17;;;;;;;0.40;0.40;;;6.70;49.70;;;;;;5054657;28;20532;-70
2022/01/26 13:03:43;;;;;;;0.40;0.40;;;6.60;48.80;;;;;;5054612;28;20202;-70
2022/01/26 13:06:23;;;;;;;0.30;0.30;;;6.60;49.00;;;;;;5054491;28;20205;-71
2022/01/26 13:08:54;;;;;;;0.40;0.40;;;6.50;49.30;;;;;;5054614;28;20429;-70
2022/01/26 13:11:25;;;;;;;0.52;0.52;;;6.30;49.30;;;;;;5054518;28;20205;-70
2022/01/26 13:14:02;;;;;;;0.40;0.40;;;6.00;49.50;;;;;;5054365;28;20171;-70
2022/01/26 13:16:34;;;;;;;0.40;0.40;;;6.10;48.20;;;;;;5054039;28;20177;-70
2022/01/26 13:19:27;;;;;;;0.35;0.35;;;6.20;48.80;;;;;;5054079;28;20734;-70
2022/01/26 13:22:34;;;;;;;0.30;0.30;;;6.20;48.40;;;;;;5054254;28;20179;-70
2022/01/26 13:51:13;;;;;;;0.40;0.40;;;6.20;49.70;;;;;;5053583;28;20217;-70
2022/01/26 13:56:39;;;;;;;0.40;0.40;;;6.20;48.50;;;;;;5053474;28;20658;-70
2022/01/26 13:59:13;;;;;;;0.32;0.32;;;6.10;48.80;;;;;;5053130;28;20594;-70
2022/01/26 14:01:43;;;;;;;0.40;0.40;;;6.10;50.70;;;;;;5053699;28;20172;-70
2022/01/26 14:04:09;;;;;;;0.30;0.30;;;6.10;51.00;;;;;;5053609;28;20648;-71
2022/01/26 14:06:34;;;;;;;0.35;0.35;;;6.00;50.40;;;;;;5053142;28;20174;-70
2022/01/26 14:09:00;;;;;;;0.40;0.40;;;6.00;50.30;;;;;;5050803;28;20202;-70
2022/01/26 14:11:26;;;;;;;0.40;0.40;;;6.10;52.60;;;;;;5052631;28;20197;-70
2022/01/26 14:13:55;;;;;;;0.40;0.40;;;6.00;50.70;;;;;;5050736;28;20249;-70
2022/01/26 14:16:22;;;;;;;0.40;0.40;;;6.00;50.90;;;;;;5051761;28;20166;-70
2022/01/26 14:26:45;;;;;;;0.40;0.40;;;5.70;52.30;;;;;;5052202;28;20177;-69
2022/01/26 14:29:22;;;;;;;2.63;2.45;;;5.70;52.10;;;;;;5053637;28;20193;-69
2022/01/26 15:51:50;;;;;;;0.30;0.30;;;3.60;57.70;;;;;;5055808;28;20566;-70
2022/01/26 15:57:23;;;;;;;0.40;0.40;;;3.60;58.00;;;;;;5055825;28;20186;-70
2022/01/26 16:08:34;;;;;;;0.30;0.30;;;3.20;59.30;;;;;;5060800;28;20179;-70
2022/01/26 16:16:37;;;;;;;0.30;0.30;;;2.90;59.70;;;;;;5055327;28;20213;-70
2022/01/26 16:21:44;;;;;;;0.33;0.33;;;2.70;60.90;;;;;;5055581;28;20179;-70
2022/01/26 16:35:25;;;;;;;0.30;0.30;;;2.40;65.30;;;;;;5055268;28;20253;-70
2022/01/26 18:05:38;;;;;;;0.40;0.40;;;1.00;83.30;;;;;;5052243;28;20594;-69
2022/01/26 18:15:37;;;;;;;0.40;0.40;;;0.90;83.40;;;;;;5053347;28;20227;-69
2022/01/26 18:26:27;;;;;;;0.40;0.40;;;0.60;85.30;;;;;;5053267;28;20185;-69
2022/01/26 18:50:47;;;;;;;0.40;0.40;;;0.60;87.80;;;;;;5053074;28;20236;-69
2022/01/26 18:53:13;;;;;;;0.40;0.40;;;0.60;87.90;;;;;;5053115;28;20166;-69
2022/01/26 18:55:39;;;;;;;0.40;0.40;;;0.60;87.30;;;;;;5052854;28;20163;-69
2022/01/26 18:58:05;;;;;;;0.40;0.40;;;0.50;87.20;;;;;;5052942;28;20750;-69
2022/01/26 19:00:31;;;;;;;0.40;0.40;;;0.50;87.80;;;;;;5052748;28;20292;-69
2022/01/26 19:02:59;;;;;;;0.40;0.40;;;0.50;88.40;;;;;;5051722;28;20186;-69
2022/01/26 19:05:25;;;;;;;0.50;0.50;;;0.50;88.50;;;;;;5052875;28;20247;-69
2022/01/26 19:07:53;;;;;;;0.40;0.40;;;0.50;88.30;;;;;;5053190;28;20275;-69
2022/01/26 19:10:20;;;;;;;0.30;0.30;;;0.50;88.50;;;;;;5052697;28;20225;-69
2022/01/26 19:12:46;;;;;;;0.40;0.40;;;0.50;88.80;;;;;;5052969;28;20582;-69
2022/01/26 19:15:15;;;;;;;1.55;1.55;;;0.40;89.50;;;;;;5052785;28;20167;-69
2022/01/26 19:20:46;;;;;;;0.30;0.30;;;0.20;88.80;;;;;;5056564;28;20676;-69
2022/01/26 19:26:17;;;;;;;0.40;0.40;;;0.10;88.80;;;;;;5065940;28;20174;-69
2022/01/26 19:28:47;;;;;;;0.40;0.40;;;0.00;89.40;;;;;;5056476;28;20277;-68
2022/01/26 19:45:43;;;;;;;0.50;0.50;;;0.00;90.40;;;;;;5056250;28;20287;-69
2022/01/26 19:53:06;;;;;;;0.57;0.57;;;0.00;90.30;;;;;;5055873;28;20665;-68
2022/01/26 19:55:32;;;;;;;0.52;0.52;;;-0.10;90.50;;;;;;5055552;28;20592;-69
2022/01/26 19:58:00;;;;;;;0.40;0.40;;;-0.10;90.50;;;;;;5055921;28;20178;-68
2022/01/26 20:00:26;;;;;;;0.50;0.50;;;-0.10;90.40;;;;;;5052452;28;20456;-68
2022/01/26 20:02:51;;;;;;;0.40;0.40;;;-0.10;90.20;;;;;;5055562;28;20653;-68
2022/01/26 20:05:18;;;;;;;0.40;0.40;;;-0.20;90.30;;;;;;5054952;28;20173;-68
2022/01/26 20:07:48;;;;;;;0.45;0.45;;;-0.20;90.50;;;;;;5055322;28;20253;-68
2022/01/26 20:10:20;;;;;;;0.40;0.40;;;-0.20;90.80;;;;;;5055610;28;20190;-69
2022/01/26 20:12:49;;;;;;;0.40;0.40;;;-0.20;90.90;;;;;;5055502;28;20177;-68